(°C)
16°
16°
16°
15°
13°
11°
(°C)
12°
13°
12°
12°
10°
V
V
V
V
V
VSV
SSV
(km/h)
15-30
15-29
14-27
12-25
9-19
6-14
6-8
(mm)
0
0
0
0
0
0
0
(%)
3
2
2
1
1
0
0

Elevația soarelui

/ 27.3°
sun-icon
UV 2
04:58
21:46
Al doilea pătrar (235°)
23:29
10:13

METAR pentru 57.92°N 56.02°E (USPP)

Ora Condiții Temperatură/
Punctul de rouă
Vânt Vizibilitate Vremea Nori Presiune Schimbă Brut
VFR 16°C / 7°C 330º variable 290º to 010º 10kt >10km - Clouds and Visibility OK 1012 No Significant change. Runway 21: Clear and dry, 51-100% contamination with <1mm, friction coefficient 0.60. USPP 281230Z 33005MPS 290V010 CAVOK 16/07 Q1012 R21/090060 NOSIG RMK QFE748
VFR 17°C / 7°C 320º variable 270º to 010º 10kt >10km - Broken Clouds 4600ft 1012 No Significant change. Runway 21: Clear and dry, 51-100% contamination with <1mm, friction coefficient 0.60. USPP 281200Z 32005MPS 270V010 9999 BKN046 17/07 Q1012 R21/090060 NOSIG RMK QFE748
VFR 15°C / 7°C 340º variable 300º to 020º 8kt >10km - Broken Clouds 4600ft 1012 No Significant change. Runway 21: Clear and dry, 51-100% contamination with <1mm, friction coefficient 0.60. USPP 281130Z 34004MPS 300V020 9999 BKN046 15/07 Q1012 R21/090060 NOSIG RMK QFE748
VFR 17°C / 8°C 340º variable 290º to 020º 8kt >10km - Scattered Clouds 4000ft 1012 No Significant change. Runway 21: Clear and dry, 51-100% contamination with <1mm, friction coefficient 0.60. USPP 281100Z 34004MPS 290V020 9999 SCT040 17/08 Q1012 R21/090060 NOSIG RMK QFE748
VFR 16°C / 7°C 320º variable 260º to 010º 8kt >10km - Scattered Clouds 3600ft 1012 No Significant change. Runway 21: Clear and dry, 51-100% contamination with <1mm, friction coefficient 0.60. USPP 281030Z 32004MPS 260V010 9999 SCT036 16/07 Q1012 R21/090060 NOSIG RMK QFE748
VFR 16°C / 7°C 320º variable 270º to 010º 8kt >10km - Scattered Clouds 3600ft 1012 No Significant change. Runway 21: Clear and dry, 51-100% contamination with <1mm, friction coefficient 0.60. USPP 281000Z 32004MPS 270V010 9999 SCT036 16/07 Q1012 R21/090060 NOSIG RMK QFE748
VFR 16°C / 7°C 320º 8kt >10km - Scattered Clouds 4000ft 1012 No Significant change. Runway 21: Clear and dry, 51-100% contamination with <1mm, friction coefficient 0.60. USPP 280930Z 32004MPS 9999 SCT040 16/07 Q1012 R21/090060 NOSIG RMK QFE749
VFR 15°C / 7°C 330º variable 280º to 360º 10kt >10km - Scattered Clouds 3600ft 1012 No Significant change. Runway 03: Clear and dry, 51-100% contamination with <1mm, friction coefficient 0.60. USPP 280900Z 33005MPS 280V360 9999 SCT036 15/07 Q1012 R03/090060 NOSIG RMK QFE749
VFR 15°C / 7°C 330º variable 280º to 010º 10kt >10km - Broken Clouds 3600ft 1012 No Significant change. Runway 21: Clear and dry, 51-100% contamination with <1mm, friction coefficient 0.60. USPP 280830Z 33005MPS 280V010 9999 BKN036 15/07 Q1012 R21/090060 NOSIG RMK QFE748
MVFR 15°C / 7°C 320º variable 280º to 030º 8kt >10km - Broken Clouds 3000ft 1012 No Significant change. Runway 21: Clear and dry, 51-100% contamination with <1mm, friction coefficient 0.60. USPP 280800Z 32004MPS 280V030 9999 BKN030 15/07 Q1012 R21/090060 NOSIG RMK QFE748
VFR 14°C / 8°C 310º variable 280º to 340º 8kt >10km - Broken Clouds 3600ft 1012 No Significant change. Runway 21: Clear and dry, 51-100% contamination with <1mm, friction coefficient 0.60. USPP 280730Z 31004MPS 280V340 9999 BKN036 14/08 Q1012 R21/090060 NOSIG RMK QFE748
VFR 14°C / 8°C 310º variable 260º to 030º 8kt >10km - Broken Clouds 3300ft 1012 No Significant change. Runway 21: Clear and dry, 51-100% contamination with <1mm, friction coefficient 0.60. USPP 280700Z 31004MPS 260V030 9999 BKN033 14/08 Q1012 R21/090060 NOSIG RMK QFE748
MVFR 13°C / 8°C 340º variable 310º to 030º 6kt >10km - Broken Clouds 2600ft 1012 No Significant change. Runway 21: Clear and dry, 51-100% contamination with <1mm, friction coefficient 0.60. USPP 280630Z 34003MPS 310V030 9999 BKN026 13/08 Q1012 R21/090060 NOSIG RMK QFE748
VFR 14°C / 8°C 320º variable 270º to 020º 6kt >10km - Broken Clouds 3300ft 1012 No Significant change. Runway 21: Clear and dry, 51-100% contamination with <1mm, friction coefficient 0.60. USPP 280600Z 32003MPS 270V020 9999 BKN033 14/08 Q1012 R21/090060 NOSIG RMK QFE748
MVFR 12°C / 8°C 330º variable 280º to 020º 6kt >10km - Broken Clouds 2600ft 1012 No Significant change. Runway 21: Clear and dry, 51-100% contamination with <1mm, friction coefficient 0.60. USPP 280530Z 33003MPS 280V020 9999 BKN026 12/08 Q1012 R21/090060 NOSIG RMK QFE748
VFR 12°C / 8°C 320º variable 270º to 360º 8kt >10km - Broken Clouds 3300ft 1012 No Significant change. Runway 21: Clear and dry, 51-100% contamination with <1mm, friction coefficient 0.60. USPP 280500Z 32004MPS 270V360 9999 BKN033 12/08 Q1012 R21/090060 NOSIG RMK QFE748
MVFR 12°C / 8°C 300º 8kt >10km - Broken Clouds 3000ft 1012 Temporary: Broken Clouds 700ft. RMK QFE748 . Runway 21: Clear and dry, 51-100% contamination with <1mm, friction coefficient 0.60. USPP 280430Z 30004MPS 9999 BKN030 12/08 Q1012 R21/090060 TEMPO BKN007 RMK QFE748
MVFR 12°C / 9°C 310º variable 280º to 350º 10kt >10km - Broken Clouds 1500ft 1012 Temporary: Broken Clouds 700ft. RMK QFE748 . Runway 21: Clear and dry, 51-100% contamination with <1mm, friction coefficient 0.60. USPP 280400Z 31005MPS 280V350 9999 BKN015 12/09 Q1012 R21/090060 TEMPO BKN007 RMK QFE748
VFR 11°C / 9°C 300º 12kt >10km - Scattered Clouds 1400ft 1012 Temporary: Broken Clouds 700ft. RMK QFE748 . Runway 21: Clear and dry, 51-100% contamination with <1mm, friction coefficient 0.60. USPP 280330Z 30006MPS 9999 SCT014 11/09 Q1012 R21/090060 TEMPO BKN007 RMK QFE748
VFR 11°C / 9°C 300º 10kt >10km - Scattered Clouds 1300ft 1012 Temporary: Broken Clouds 700ft. RMK QFE748 . Runway 21: Clear and dry, 51-100% contamination with <1mm, friction coefficient 0.60. USPP 280300Z 30005MPS 9999 SCT013 11/09 Q1012 R21/090060 TEMPO BKN007 RMK QFE748
VFR 10°C / 8°C 290º variable 260º to 320º 10kt >10km - Scattered Clouds 1400ft 1012 Temporary: Broken Clouds 700ft. RMK QFE748 . Runway 21: Clear and dry, 51-100% contamination with <1mm, friction coefficient 0.60. USPP 280230Z 29005MPS 260V320 9999 SCT014 10/08 Q1012 R21/090060 TEMPO BKN007 RMK QFE748
MVFR 10°C / 8°C 280º 10kt >10km - Broken Clouds 1600ft 1012 No Significant change. Runway 21: Clear and dry, 51-100% contamination with <1mm, friction coefficient 0.60. USPP 280200Z 28005MPS 9999 BKN016 10/08 Q1012 R21/090060 NOSIG RMK QFE748
VFR 10°C / 9°C 270º 8kt >10km - Scattered Clouds 2000ft 1012 No Significant change. Runway 21: Clear and dry, 51-100% contamination with <1mm, friction coefficient 0.60. USPP 280130Z 27004MPS 9999 SCT020 10/09 Q1012 R21/090060 NOSIG RMK QFE748
VFR 10°C / 8°C 260º 6kt >10km - Scattered Clouds 4600ft 1012 No Significant change. Runway 21: Clear and dry, 51-100% contamination with <1mm, friction coefficient 0.60. USPP 280100Z 26003MPS 9999 SCT046 10/08 Q1012 R21/090060 NOSIG RMK QFE748

VFR

16°C / 7°C

[Mai mult]
Vânt 330º variable 290º to 010º 10kt
Vizibilitate >10km
Vremea -
Nori Clouds and Visibility OK
Presiune 1012
Schimbă No Significant change. Runway 21: Clear and dry, 51-100% contamination with <1mm, friction coefficient 0.60.
Brut USPP 281230Z 33005MPS 290V010 CAVOK 16/07 Q1012 R21/090060 NOSIG RMK QFE748

VFR

17°C / 7°C

[Mai mult]
Vânt 320º variable 270º to 010º 10kt
Vizibilitate >10km
Vremea -
Nori Broken Clouds 4600ft
Presiune 1012
Schimbă No Significant change. Runway 21: Clear and dry, 51-100% contamination with <1mm, friction coefficient 0.60.
Brut USPP 281200Z 32005MPS 270V010 9999 BKN046 17/07 Q1012 R21/090060 NOSIG RMK QFE748

VFR

15°C / 7°C

[Mai mult]
Vânt 340º variable 300º to 020º 8kt
Vizibilitate >10km
Vremea -
Nori Broken Clouds 4600ft
Presiune 1012
Schimbă No Significant change. Runway 21: Clear and dry, 51-100% contamination with <1mm, friction coefficient 0.60.
Brut USPP 281130Z 34004MPS 300V020 9999 BKN046 15/07 Q1012 R21/090060 NOSIG RMK QFE748

VFR

17°C / 8°C

[Mai mult]
Vânt 340º variable 290º to 020º 8kt
Vizibilitate >10km
Vremea -
Nori Scattered Clouds 4000ft
Presiune 1012
Schimbă No Significant change. Runway 21: Clear and dry, 51-100% contamination with <1mm, friction coefficient 0.60.
Brut USPP 281100Z 34004MPS 290V020 9999 SCT040 17/08 Q1012 R21/090060 NOSIG RMK QFE748

VFR

16°C / 7°C

[Mai mult]
Vânt 320º variable 260º to 010º 8kt
Vizibilitate >10km
Vremea -
Nori Scattered Clouds 3600ft
Presiune 1012
Schimbă No Significant change. Runway 21: Clear and dry, 51-100% contamination with <1mm, friction coefficient 0.60.
Brut USPP 281030Z 32004MPS 260V010 9999 SCT036 16/07 Q1012 R21/090060 NOSIG RMK QFE748

VFR

16°C / 7°C

[Mai mult]
Vânt 320º variable 270º to 010º 8kt
Vizibilitate >10km
Vremea -
Nori Scattered Clouds 3600ft
Presiune 1012
Schimbă No Significant change. Runway 21: Clear and dry, 51-100% contamination with <1mm, friction coefficient 0.60.
Brut USPP 281000Z 32004MPS 270V010 9999 SCT036 16/07 Q1012 R21/090060 NOSIG RMK QFE748

VFR

16°C / 7°C

[Mai mult]
Vânt 320º 8kt
Vizibilitate >10km
Vremea -
Nori Scattered Clouds 4000ft
Presiune 1012
Schimbă No Significant change. Runway 21: Clear and dry, 51-100% contamination with <1mm, friction coefficient 0.60.
Brut USPP 280930Z 32004MPS 9999 SCT040 16/07 Q1012 R21/090060 NOSIG RMK QFE749

VFR

15°C / 7°C

[Mai mult]
Vânt 330º variable 280º to 360º 10kt
Vizibilitate >10km
Vremea -
Nori Scattered Clouds 3600ft
Presiune 1012
Schimbă No Significant change. Runway 03: Clear and dry, 51-100% contamination with <1mm, friction coefficient 0.60.
Brut USPP 280900Z 33005MPS 280V360 9999 SCT036 15/07 Q1012 R03/090060 NOSIG RMK QFE749

VFR

15°C / 7°C

[Mai mult]
Vânt 330º variable 280º to 010º 10kt
Vizibilitate >10km
Vremea -
Nori Broken Clouds 3600ft
Presiune 1012
Schimbă No Significant change. Runway 21: Clear and dry, 51-100% contamination with <1mm, friction coefficient 0.60.
Brut USPP 280830Z 33005MPS 280V010 9999 BKN036 15/07 Q1012 R21/090060 NOSIG RMK QFE748

MVFR

15°C / 7°C

[Mai mult]
Vânt 320º variable 280º to 030º 8kt
Vizibilitate >10km
Vremea -
Nori Broken Clouds 3000ft
Presiune 1012
Schimbă No Significant change. Runway 21: Clear and dry, 51-100% contamination with <1mm, friction coefficient 0.60.
Brut USPP 280800Z 32004MPS 280V030 9999 BKN030 15/07 Q1012 R21/090060 NOSIG RMK QFE748

VFR

14°C / 8°C

[Mai mult]
Vânt 310º variable 280º to 340º 8kt
Vizibilitate >10km
Vremea -
Nori Broken Clouds 3600ft
Presiune 1012
Schimbă No Significant change. Runway 21: Clear and dry, 51-100% contamination with <1mm, friction coefficient 0.60.
Brut USPP 280730Z 31004MPS 280V340 9999 BKN036 14/08 Q1012 R21/090060 NOSIG RMK QFE748

VFR

14°C / 8°C

[Mai mult]
Vânt 310º variable 260º to 030º 8kt
Vizibilitate >10km
Vremea -
Nori Broken Clouds 3300ft
Presiune 1012
Schimbă No Significant change. Runway 21: Clear and dry, 51-100% contamination with <1mm, friction coefficient 0.60.
Brut USPP 280700Z 31004MPS 260V030 9999 BKN033 14/08 Q1012 R21/090060 NOSIG RMK QFE748

MVFR

13°C / 8°C

[Mai mult]
Vânt 340º variable 310º to 030º 6kt
Vizibilitate >10km
Vremea -
Nori Broken Clouds 2600ft
Presiune 1012
Schimbă No Significant change. Runway 21: Clear and dry, 51-100% contamination with <1mm, friction coefficient 0.60.
Brut USPP 280630Z 34003MPS 310V030 9999 BKN026 13/08 Q1012 R21/090060 NOSIG RMK QFE748

VFR

14°C / 8°C

[Mai mult]
Vânt 320º variable 270º to 020º 6kt
Vizibilitate >10km
Vremea -
Nori Broken Clouds 3300ft
Presiune 1012
Schimbă No Significant change. Runway 21: Clear and dry, 51-100% contamination with <1mm, friction coefficient 0.60.
Brut USPP 280600Z 32003MPS 270V020 9999 BKN033 14/08 Q1012 R21/090060 NOSIG RMK QFE748

MVFR

12°C / 8°C

[Mai mult]
Vânt 330º variable 280º to 020º 6kt
Vizibilitate >10km
Vremea -
Nori Broken Clouds 2600ft
Presiune 1012
Schimbă No Significant change. Runway 21: Clear and dry, 51-100% contamination with <1mm, friction coefficient 0.60.
Brut USPP 280530Z 33003MPS 280V020 9999 BKN026 12/08 Q1012 R21/090060 NOSIG RMK QFE748

VFR

12°C / 8°C

[Mai mult]
Vânt 320º variable 270º to 360º 8kt
Vizibilitate >10km
Vremea -
Nori Broken Clouds 3300ft
Presiune 1012
Schimbă No Significant change. Runway 21: Clear and dry, 51-100% contamination with <1mm, friction coefficient 0.60.
Brut USPP 280500Z 32004MPS 270V360 9999 BKN033 12/08 Q1012 R21/090060 NOSIG RMK QFE748

MVFR

12°C / 8°C

[Mai mult]
Vânt 300º 8kt
Vizibilitate >10km
Vremea -
Nori Broken Clouds 3000ft
Presiune 1012
Schimbă Temporary: Broken Clouds 700ft. RMK QFE748 . Runway 21: Clear and dry, 51-100% contamination with <1mm, friction coefficient 0.60.
Brut USPP 280430Z 30004MPS 9999 BKN030 12/08 Q1012 R21/090060 TEMPO BKN007 RMK QFE748

MVFR

12°C / 9°C

[Mai mult]
Vânt 310º variable 280º to 350º 10kt
Vizibilitate >10km
Vremea -
Nori Broken Clouds 1500ft
Presiune 1012
Schimbă Temporary: Broken Clouds 700ft. RMK QFE748 . Runway 21: Clear and dry, 51-100% contamination with <1mm, friction coefficient 0.60.
Brut USPP 280400Z 31005MPS 280V350 9999 BKN015 12/09 Q1012 R21/090060 TEMPO BKN007 RMK QFE748

VFR

11°C / 9°C

[Mai mult]
Vânt 300º 12kt
Vizibilitate >10km
Vremea -
Nori Scattered Clouds 1400ft
Presiune 1012
Schimbă Temporary: Broken Clouds 700ft. RMK QFE748 . Runway 21: Clear and dry, 51-100% contamination with <1mm, friction coefficient 0.60.
Brut USPP 280330Z 30006MPS 9999 SCT014 11/09 Q1012 R21/090060 TEMPO BKN007 RMK QFE748

VFR

11°C / 9°C

[Mai mult]
Vânt 300º 10kt
Vizibilitate >10km
Vremea -
Nori Scattered Clouds 1300ft
Presiune 1012
Schimbă Temporary: Broken Clouds 700ft. RMK QFE748 . Runway 21: Clear and dry, 51-100% contamination with <1mm, friction coefficient 0.60.
Brut USPP 280300Z 30005MPS 9999 SCT013 11/09 Q1012 R21/090060 TEMPO BKN007 RMK QFE748

VFR

10°C / 8°C

[Mai mult]
Vânt 290º variable 260º to 320º 10kt
Vizibilitate >10km
Vremea -
Nori Scattered Clouds 1400ft
Presiune 1012
Schimbă Temporary: Broken Clouds 700ft. RMK QFE748 . Runway 21: Clear and dry, 51-100% contamination with <1mm, friction coefficient 0.60.
Brut USPP 280230Z 29005MPS 260V320 9999 SCT014 10/08 Q1012 R21/090060 TEMPO BKN007 RMK QFE748

MVFR

10°C / 8°C

[Mai mult]
Vânt 280º 10kt
Vizibilitate >10km
Vremea -
Nori Broken Clouds 1600ft
Presiune 1012
Schimbă No Significant change. Runway 21: Clear and dry, 51-100% contamination with <1mm, friction coefficient 0.60.
Brut USPP 280200Z 28005MPS 9999 BKN016 10/08 Q1012 R21/090060 NOSIG RMK QFE748

VFR

10°C / 9°C

[Mai mult]
Vânt 270º 8kt
Vizibilitate >10km
Vremea -
Nori Scattered Clouds 2000ft
Presiune 1012
Schimbă No Significant change. Runway 21: Clear and dry, 51-100% contamination with <1mm, friction coefficient 0.60.
Brut USPP 280130Z 27004MPS 9999 SCT020 10/09 Q1012 R21/090060 NOSIG RMK QFE748

VFR

10°C / 8°C

[Mai mult]
Vânt 260º 6kt
Vizibilitate >10km
Vremea -
Nori Scattered Clouds 4600ft
Presiune 1012
Schimbă No Significant change. Runway 21: Clear and dry, 51-100% contamination with <1mm, friction coefficient 0.60.
Brut USPP 280100Z 26003MPS 9999 SCT046 10/08 Q1012 R21/090060 NOSIG RMK QFE748

TAF pentru 57.92°N 56.02°E (USPP)

From till


From till Wind 310º 6kt. Gust 27kt. Visibility 10km or more. Broken Clouds 3000ft.
Temporarly from till Light Showers Rain . Broken Clouds 1600ft.
Becoming from till Wind 230º 6kt. Gust 16kt. Visibility 10km or more. Broken Clouds 3000ft.

Brut: TAF USPP 281055Z 2812/2912 31003G14MPS 9999 BKN030 TEMPO 2812/2815 -SHRA BKN016CB BECMG 2816/2818 23003G08MPS

Imagini satelitare și ploaie pentru 57.92°N 56.02°E

Markerul cu locaţia este poziţionat pe 57.92°N 56.02°E. [Mai mult]

Imaginea satelitară în timp real combină lumina vizibilă din timpul zilei cu radiația cu infraroșu din timpul nopții. Pe timp de noapte, imaginea nu este întunecată, deoarece radiația cu infraroșu poate detecta diferențele de temperatură. Din păcate, norii joși și ceața sunt greu de recunoscut față de temperatura de la sol, din această cauză putând fi invizibili pe timp de noapte. Imaginile satelitare Meteosat pentru Europa sunt actualizate în timp real din 5 în 5 minute. Imaginile GOES-16/GOES-17 (America de Nord și de Sud) și Himawari (Asia) sunt actualizate din 10 în 10 minute.

Toate drepturile rezervate 2021 EUMETSAT / meteoblue. / Toate drepturile rezervate 2021 meteoblue

Radar și nowcast de precipitații pentru 57.92°N 56.02°E

Burniță
Ușoară
Moderat
Greu
Foarte greu
Grindină

Markerul de locație este plasat în 57.92°N 56.02°E. Această animație arată radarul de precipitații pentru ultima oră, precum și o 1h prognoză. Bruma și fulguiala pot fi invizibile pe radar. Intensitatea precipitațiilor este reprezentată prin culori, de la albastru deschis la violet închis.